sensor_id;sensor_type;location;lat;lon;timestamp;pressure;altitude;pressure_sealevel;temperature;humidity
13027;BME280;6580;42.680;23.324;2023-02-03T00:02:05;95506.53;;;4.57;88.29
13027;BME280;6580;42.680;23.324;2023-02-03T00:04:36;95506.88;;;4.53;88.46
13027;BME280;6580;42.680;23.324;2023-02-03T00:07:05;95500.59;;;4.43;90.13
13027;BME280;6580;42.680;23.324;2023-02-03T00:09:32;95506.09;;;4.40;90.82
13027;BME280;6580;42.680;23.324;2023-02-03T00:11:59;95501.88;;;4.26;91.96
13027;BME280;6580;42.680;23.324;2023-02-03T00:14:26;95517.44;;;4.29;93.99
13027;BME280;6580;42.680;23.324;2023-02-03T00:16:53;95514.91;;;4.28;93.83
13027;BME280;6580;42.680;23.324;2023-02-03T00:19:19;95509.53;;;4.29;94.93
13027;BME280;6580;42.680;23.324;2023-02-03T00:21:48;95510.59;;;4.27;94.75
13027;BME280;6580;42.680;23.324;2023-02-03T00:24:16;95513.59;;;4.22;95.45
13027;BME280;6580;42.680;23.324;2023-02-03T00:26:45;95519.22;;;4.18;96.66
13027;BME280;6580;42.680;23.324;2023-02-03T00:29:12;95526.63;;;4.24;97.50
13027;BME280;6580;42.680;23.324;2023-02-03T00:31:39;95526.44;;;4.03;98.15
13027;BME280;6580;42.680;23.324;2023-02-03T00:34:06;95523.88;;;4.02;100.00
13027;BME280;6580;42.680;23.324;2023-02-03T00:36:33;95529.31;;;4.11;100.00
13027;BME280;6580;42.680;23.324;2023-02-03T00:39:03;95535.84;;;4.18;100.00
13027;BME280;6580;42.680;23.324;2023-02-03T00:41:30;95533.59;;;4.25;100.00
13027;BME280;6580;42.680;23.324;2023-02-03T00:43:58;95537.66;;;4.18;100.00
13027;BME280;6580;42.680;23.324;2023-02-03T00:46:28;95549.03;;;3.95;100.00
13027;BME280;6580;42.680;23.324;2023-02-03T00:48:54;95543.53;;;3.98;100.00
13027;BME280;6580;42.680;23.324;2023-02-03T00:51:23;95540.03;;;3.97;100.00
13027;BME280;6580;42.680;23.324;2023-02-03T00:53:51;95547.28;;;4.06;100.00
13027;BME280;6580;42.680;23.324;2023-02-03T00:56:19;95553.81;;;4.01;100.00
13027;BME280;6580;42.680;23.324;2023-02-03T00:58:47;95553.97;;;3.87;100.00
13027;BME280;6580;42.680;23.324;2023-02-03T01:01:14;95539.81;;;4.00;100.00
13027;BME280;6580;42.680;23.324;2023-02-03T01:03:41;95556.31;;;4.15;100.00
13027;BME280;6580;42.680;23.324;2023-02-03T01:06:12;95554.41;;;4.17;100.00
13027;BME280;6580;42.680;23.324;2023-02-03T01:08:40;95579.53;;;4.10;100.00
13027;BME280;6580;42.680;23.324;2023-02-03T01:11:10;95570.63;;;4.00;100.00
13027;BME280;6580;42.680;23.324;2023-02-03T01:13:40;95571.84;;;4.07;100.00
13027;BME280;6580;42.680;23.324;2023-02-03T01:16:08;95567.50;;;4.06;100.00
13027;BME280;6580;42.680;23.324;2023-02-03T01:18:37;95558.22;;;3.90;100.00
13027;BME280;6580;42.680;23.324;2023-02-03T01:21:05;95559.59;;;4.06;100.00
13027;BME280;6580;42.680;23.324;2023-02-03T01:23:34;95566.28;;;3.99;100.00
13027;BME280;6580;42.680;23.324;2023-02-03T01:26:02;95555.19;;;4.06;100.00
13027;BME280;6580;42.680;23.324;2023-02-03T01:28:29;95542.34;;;4.02;100.00
13027;BME280;6580;42.680;23.324;2023-02-03T01:31:09;95540.38;;;3.93;100.00
13027;BME280;6580;42.680;23.324;2023-02-03T01:33:36;95528.44;;;3.64;100.00
13027;BME280;6580;42.680;23.324;2023-02-03T01:36:06;95542.34;;;3.66;100.00
13027;BME280;6580;42.680;23.324;2023-02-03T01:38:33;95552.94;;;3.90;100.00
13027;BME280;6580;42.680;23.324;2023-02-03T01:41:01;95556.28;;;3.56;100.00
13027;BME280;6580;42.680;23.324;2023-02-03T01:43:29;95565.31;;;3.64;100.00
13027;BME280;6580;42.680;23.324;2023-02-03T01:45:59;95570.56;;;3.64;100.00
13027;BME280;6580;42.680;23.324;2023-02-03T01:48:30;95571.97;;;3.70;100.00
13027;BME280;6580;42.680;23.324;2023-02-03T01:51:03;95572.72;;;3.59;100.00
13027;BME280;6580;42.680;23.324;2023-02-03T01:53:31;95577.53;;;3.65;100.00
13027;BME280;6580;42.680;23.324;2023-02-03T01:56:00;95596.31;;;3.48;100.00
13027;BME280;6580;42.680;23.324;2023-02-03T01:58:31;95591.44;;;3.67;100.00
13027;BME280;6580;42.680;23.324;2023-02-03T02:01:03;95586.31;;;3.53;100.00
13027;BME280;6580;42.680;23.324;2023-02-03T02:03:33;95583.06;;;3.50;100.00
13027;BME280;6580;42.680;23.324;2023-02-03T02:06:04;95577.97;;;3.59;100.00
13027;BME280;6580;42.680;23.324;2023-02-03T02:08:32;95585.66;;;3.62;100.00
13027;BME280;6580;42.680;23.324;2023-02-03T02:10:59;95591.56;;;3.66;100.00
13027;BME280;6580;42.680;23.324;2023-02-03T02:13:29;95596.81;;;3.78;100.00
13027;BME280;6580;42.680;23.324;2023-02-03T02:15:59;95589.00;;;3.64;100.00
13027;BME280;6580;42.680;23.324;2023-02-03T02:18:40;95590.41;;;3.70;99.89
13027;BME280;6580;42.680;23.324;2023-02-03T02:21:30;95596.28;;;3.73;100.00
13027;BME280;6580;42.680;23.324;2023-02-03T02:27:25;95591.44;;;3.67;100.00
13027;BME280;6580;42.680;23.324;2023-02-03T02:30:15;95600.94;;;3.57;100.00
13027;BME280;6580;42.680;23.324;2023-02-03T02:33:09;95596.50;;;3.58;99.27
13027;BME280;6580;42.680;23.324;2023-02-03T02:35:49;95599.69;;;3.50;100.00
13027;BME280;6580;42.680;23.324;2023-02-03T02:38:25;95604.53;;;3.56;100.00
13027;BME280;6580;42.680;23.324;2023-02-03T02:41:03;95612.31;;;3.58;99.99
13027;BME280;6580;42.680;23.324;2023-02-03T02:43:39;95618.44;;;3.46;100.00
13027;BME280;6580;42.680;23.324;2023-02-03T02:46:10;95611.06;;;3.38;100.00
13027;BME280;6580;42.680;23.324;2023-02-03T02:48:43;95610.41;;;3.47;99.77
13027;BME280;6580;42.680;23.324;2023-02-03T02:51:13;95610.22;;;3.50;100.00
13027;BME280;6580;42.680;23.324;2023-02-03T02:53:44;95619.59;;;3.42;99.40
13027;BME280;6580;42.680;23.324;2023-02-03T02:56:16;95635.06;;;3.46;98.79
13027;BME280;6580;42.680;23.324;2023-02-03T02:58:48;95629.38;;;3.52;99.11
13027;BME280;6580;42.680;23.324;2023-02-03T03:01:18;95624.50;;;3.71;97.92
13027;BME280;6580;42.680;23.324;2023-02-03T03:03:46;95615.78;;;3.58;96.74
13027;BME280;6580;42.680;23.324;2023-02-03T03:06:18;95618.44;;;3.33;97.87
13027;BME280;6580;42.680;23.324;2023-02-03T03:08:52;95617.69;;;3.19;96.82
13027;BME280;6580;42.680;23.324;2023-02-03T03:11:22;95611.16;;;3.12;96.84
13027;BME280;6580;42.680;23.324;2023-02-03T03:13:52;95628.53;;;3.39;96.27
13027;BME280;6580;42.680;23.324;2023-02-03T03:16:22;95637.72;;;3.34;95.16
13027;BME280;6580;42.680;23.324;2023-02-03T03:18:56;95637.38;;;3.26;94.72
13027;BME280;6580;42.680;23.324;2023-02-03T03:21:26;95642.97;;;3.34;94.34
13027;BME280;6580;42.680;23.324;2023-02-03T03:23:58;95631.72;;;3.32;93.84
13027;BME280;6580;42.680;23.324;2023-02-03T03:26:31;95644.53;;;3.36;92.83
13027;BME280;6580;42.680;23.324;2023-02-03T03:29:06;95643.06;;;3.32;91.80
13027;BME280;6580;42.680;23.324;2023-02-03T03:31:37;95634.44;;;3.55;90.62
13027;BME280;6580;42.680;23.324;2023-02-03T03:34:07;95640.84;;;3.39;89.58
13027;BME280;6580;42.680;23.324;2023-02-03T03:36:40;95640.22;;;3.23;90.00
13027;BME280;6580;42.680;23.324;2023-02-03T03:39:12;95634.22;;;3.21;90.26
13027;BME280;6580;42.680;23.324;2023-02-03T03:41:50;95632.03;;;3.27;90.28
13027;BME280;6580;42.680;23.324;2023-02-03T03:44:21;95628.31;;;3.17;90.35
13027;BME280;6580;42.680;23.324;2023-02-03T03:46:58;95646.34;;;3.23;90.33
13027;BME280;6580;42.680;23.324;2023-02-03T03:49:32;95642.75;;;3.24;90.50
13027;BME280;6580;42.680;23.324;2023-02-03T03:52:03;95644.22;;;3.28;90.60
13027;BME280;6580;42.680;23.324;2023-02-03T03:54:31;95632.75;;;3.17;91.45
13027;BME280;6580;42.680;23.324;2023-02-03T03:57:04;95629.06;;;3.19;91.80
13027;BME280;6580;42.680;23.324;2023-02-03T03:59:38;95631.50;;;3.22;91.43
13027;BME280;6580;42.680;23.324;2023-02-03T04:02:08;95631.56;;;3.21;90.72
13027;BME280;6580;42.680;23.324;2023-02-03T04:04:38;95633.38;;;3.08;92.06
13027;BME280;6580;42.680;23.324;2023-02-03T04:07:06;95637.66;;;2.97;92.89
13027;BME280;6580;42.680;23.324;2023-02-03T04:09:34;95645.91;;;3.04;93.98
13027;BME280;6580;42.680;23.324;2023-02-03T04:12:01;95639.25;;;2.99;93.18
13027;BME280;6580;42.680;23.324;2023-02-03T04:14:29;95637.84;;;2.94;94.45
13027;BME280;6580;42.680;23.324;2023-02-03T04:16:56;95636.16;;;2.93;94.30
13027;BME280;6580;42.680;23.324;2023-02-03T04:19:23;95652.63;;;3.08;92.93
13027;BME280;6580;42.680;23.324;2023-02-03T04:21:52;95661.38;;;3.09;93.15
13027;BME280;6580;42.680;23.324;2023-02-03T04:24:18;95676.19;;;3.10;93.60
13027;BME280;6580;42.680;23.324;2023-02-03T04:26:45;95685.38;;;3.29;92.94
13027;BME280;6580;42.680;23.324;2023-02-03T04:29:13;95686.16;;;2.93;93.07
13027;BME280;6580;42.680;23.324;2023-02-03T04:31:40;95692.47;;;2.90;95.27
13027;BME280;6580;42.680;23.324;2023-02-03T04:34:07;95693.38;;;3.15;93.62
13027;BME280;6580;42.680;23.324;2023-02-03T04:36:34;95691.72;;;2.88;93.99
13027;BME280;6580;42.680;23.324;2023-02-03T04:39:02;95696.28;;;2.98;94.35
13027;BME280;6580;42.680;23.324;2023-02-03T04:41:29;95697.84;;;3.01;95.27
13027;BME280;6580;42.680;23.324;2023-02-03T04:43:56;95710.38;;;2.97;95.21
13027;BME280;6580;42.680;23.324;2023-02-03T04:46:22;95718.78;;;2.90;95.11
13027;BME280;6580;42.680;23.324;2023-02-03T04:48:49;95715.78;;;3.08;95.29
13027;BME280;6580;42.680;23.324;2023-02-03T04:51:16;95721.75;;;3.10;94.45
13027;BME280;6580;42.680;23.324;2023-02-03T04:53:43;95721.03;;;3.08;94.42
13027;BME280;6580;42.680;23.324;2023-02-03T04:56:11;95726.44;;;3.19;94.37
13027;BME280;6580;42.680;23.324;2023-02-03T04:58:40;95723.91;;;3.18;93.17
13027;BME280;6580;42.680;23.324;2023-02-03T05:01:07;95724.00;;;3.16;93.16
13027;BME280;6580;42.680;23.324;2023-02-03T05:03:36;95733.25;;;3.22;93.26
13027;BME280;6580;42.680;23.324;2023-02-03T05:06:04;95720.75;;;3.25;93.33
13027;BME280;6580;42.680;23.324;2023-02-03T05:08:32;95739.50;;;3.33;92.49
13027;BME280;6580;42.680;23.324;2023-02-03T05:10:59;95733.09;;;3.37;91.05
13027;BME280;6580;42.680;23.324;2023-02-03T05:13:28;95741.00;;;3.37;91.34
13027;BME280;6580;42.680;23.324;2023-02-03T05:15:55;95738.69;;;3.45;90.88
13027;BME280;6580;42.680;23.324;2023-02-03T05:18:22;95740.69;;;3.54;90.01
13027;BME280;6580;42.680;23.324;2023-02-03T05:20:51;95752.38;;;3.50;90.48
13027;BME280;6580;42.680;23.324;2023-02-03T05:23:18;95757.94;;;3.33;90.27
13027;BME280;6580;42.680;23.324;2023-02-03T05:25:45;95748.34;;;3.32;90.92
13027;BME280;6580;42.680;23.324;2023-02-03T05:28:12;95761.63;;;3.31;91.28
13027;BME280;6580;42.680;23.324;2023-02-03T05:30:40;95760.78;;;3.43;90.99
13027;BME280;6580;42.680;23.324;2023-02-03T05:33:07;95749.44;;;3.42;91.17
13027;BME280;6580;42.680;23.324;2023-02-03T05:35:34;95757.41;;;3.41;90.78
13027;BME280;6580;42.680;23.324;2023-02-03T05:38:01;95750.88;;;3.34;92.28
13027;BME280;6580;42.680;23.324;2023-02-03T05:40:32;95751.16;;;3.29;91.80
13027;BME280;6580;42.680;23.324;2023-02-03T05:43:17;95750.03;;;3.33;91.70
13027;BME280;6580;42.680;23.324;2023-02-03T05:45:47;95756.97;;;3.34;91.53
13027;BME280;6580;42.680;23.324;2023-02-03T05:48:14;95757.19;;;3.31;91.62
13027;BME280;6580;42.680;23.324;2023-02-03T05:50:43;95752.97;;;3.29;91.71
13027;BME280;6580;42.680;23.324;2023-02-03T05:53:10;95759.88;;;3.17;91.91
13027;BME280;6580;42.680;23.324;2023-02-03T05:55:38;95761.38;;;3.21;92.39
13027;BME280;6580;42.680;23.324;2023-02-03T05:58:05;95774.53;;;3.21;90.79
13027;BME280;6580;42.680;23.324;2023-02-03T06:00:32;95768.19;;;3.11;91.58
13027;BME280;6580;42.680;23.324;2023-02-03T06:03:01;95775.31;;;3.09;93.34
13027;BME280;6580;42.680;23.324;2023-02-03T06:05:29;95781.88;;;3.16;92.98
13027;BME280;6580;42.680;23.324;2023-02-03T06:07:57;95786.94;;;3.19;91.28
13027;BME280;6580;42.680;23.324;2023-02-03T06:10:25;95781.56;;;3.21;92.41
13027;BME280;6580;42.680;23.324;2023-02-03T06:12:52;95777.81;;;3.25;91.58
13027;BME280;6580;42.680;23.324;2023-02-03T06:15:19;95778.66;;;3.25;91.16
13027;BME280;6580;42.680;23.324;2023-02-03T06:17:47;95772.31;;;3.15;91.77
13027;BME280;6580;42.680;23.324;2023-02-03T06:20:19;95785.19;;;3.32;90.92
13027;BME280;6580;42.680;23.324;2023-02-03T06:22:46;95780.28;;;3.40;89.09
13027;BME280;6580;42.680;23.324;2023-02-03T06:25:13;95788.50;;;3.48;88.80
13027;BME280;6580;42.680;23.324;2023-02-03T06:27:40;95800.94;;;3.59;87.79
13027;BME280;6580;42.680;23.324;2023-02-03T06:30:09;95803.81;;;3.68;87.35
13027;BME280;6580;42.680;23.324;2023-02-03T06:32:36;95796.22;;;3.64;87.61
13027;BME280;6580;42.680;23.324;2023-02-03T06:35:03;95800.34;;;3.80;87.08
13027;BME280;6580;42.680;23.324;2023-02-03T06:37:31;95805.72;;;3.91;84.46
13027;BME280;6580;42.680;23.324;2023-02-03T06:39:59;95807.63;;;3.89;84.19
13027;BME280;6580;42.680;23.324;2023-02-03T06:42:26;95803.44;;;3.99;83.04
13027;BME280;6580;42.680;23.324;2023-02-03T06:44:53;95819.03;;;4.27;80.28
13027;BME280;6580;42.680;23.324;2023-02-03T06:47:20;95829.16;;;4.33;78.59
13027;BME280;6580;42.680;23.324;2023-02-03T06:49:47;95828.28;;;5.05;76.16
13027;BME280;6580;42.680;23.324;2023-02-03T06:52:14;95805.69;;;5.01;73.41
13027;BME280;6580;42.680;23.324;2023-02-03T06:54:42;95825.75;;;4.92;72.09
13027;BME280;6580;42.680;23.324;2023-02-03T06:57:12;95817.03;;;5.14;72.67
13027;BME280;6580;42.680;23.324;2023-02-03T06:59:40;95801.66;;;5.08;71.70
13027;BME280;6580;42.680;23.324;2023-02-03T07:02:08;95823.09;;;5.04;71.72
13027;BME280;6580;42.680;23.324;2023-02-03T07:04:35;95829.25;;;4.92;71.39
13027;BME280;6580;42.680;23.324;2023-02-03T07:07:05;95822.03;;;4.71;73.83
13027;BME280;6580;42.680;23.324;2023-02-03T07:09:32;95828.81;;;4.50;75.02
13027;BME280;6580;42.680;23.324;2023-02-03T07:12:00;95807.50;;;4.53;74.92
13027;BME280;6580;42.680;23.324;2023-02-03T07:14:27;95810.03;;;4.54;75.37
13027;BME280;6580;42.680;23.324;2023-02-03T07:16:55;95822.59;;;4.51;75.15
13027;BME280;6580;42.680;23.324;2023-02-03T07:19:22;95820.91;;;4.50;74.99
13027;BME280;6580;42.680;23.324;2023-02-03T07:21:49;95813.53;;;4.42;76.41
13027;BME280;6580;42.680;23.324;2023-02-03T07:24:16;95814.69;;;4.26;75.69
13027;BME280;6580;42.680;23.324;2023-02-03T07:26:45;95821.00;;;4.48;74.73
13027;BME280;6580;42.680;23.324;2023-02-03T07:29:13;95818.69;;;4.44;75.07
13027;BME280;6580;42.680;23.324;2023-02-03T07:31:41;95775.78;;;4.29;74.40
13027;BME280;6580;42.680;23.324;2023-02-03T07:34:08;95814.13;;;4.71;74.00
13027;BME280;6580;42.680;23.324;2023-02-03T07:36:37;95823.78;;;4.83;72.72
13027;BME280;6580;42.680;23.324;2023-02-03T07:39:04;95832.47;;;4.60;72.88
13027;BME280;6580;42.680;23.324;2023-02-03T07:41:31;95832.06;;;4.66;72.97
13027;BME280;6580;42.680;23.324;2023-02-03T07:43:58;95838.50;;;4.74;73.09
13027;BME280;6580;42.680;23.324;2023-02-03T07:46:28;95829.50;;;4.64;72.69
13027;BME280;6580;42.680;23.324;2023-02-03T07:48:56;95846.84;;;4.56;73.03
13027;BME280;6580;42.680;23.324;2023-02-03T07:51:23;95838.84;;;4.45;74.38
13027;BME280;6580;42.680;23.324;2023-02-03T07:53:50;95838.41;;;4.51;74.08
13027;BME280;6580;42.680;23.324;2023-02-03T07:56:17;95843.63;;;4.76;72.65
13027;BME280;6580;42.680;23.324;2023-02-03T07:58:44;95843.03;;;4.60;71.96
13027;BME280;6580;42.680;23.324;2023-02-03T08:01:15;95847.78;;;4.67;72.16
13027;BME280;6580;42.680;23.324;2023-02-03T08:03:45;95844.25;;;4.92;71.45
13027;BME280;6580;42.680;23.324;2023-02-03T08:06:13;95849.59;;;4.67;72.62
13027;BME280;6580;42.680;23.324;2023-02-03T08:08:40;95833.56;;;4.57;73.12
13027;BME280;6580;42.680;23.324;2023-02-03T08:11:08;95836.28;;;4.56;73.50
13027;BME280;6580;42.680;23.324;2023-02-03T08:13:38;95842.41;;;4.56;73.82
13027;BME280;6580;42.680;23.324;2023-02-03T08:16:08;95836.91;;;4.72;75.14
13027;BME280;6580;42.680;23.324;2023-02-03T08:18:38;95845.13;;;4.80;72.99
13027;BME280;6580;42.680;23.324;2023-02-03T08:21:07;95835.69;;;5.00;71.64
13027;BME280;6580;42.680;23.324;2023-02-03T08:23:34;95850.41;;;4.80;71.80
13027;BME280;6580;42.680;23.324;2023-02-03T08:26:02;95840.25;;;4.74;70.58
13027;BME280;6580;42.680;23.324;2023-02-03T08:28:28;95839.91;;;4.55;71.56
13027;BME280;6580;42.680;23.324;2023-02-03T08:30:55;95847.97;;;4.64;73.30
13027;BME280;6580;42.680;23.324;2023-02-03T08:33:22;95859.84;;;4.95;72.08
13027;BME280;6580;42.680;23.324;2023-02-03T08:35:50;95857.31;;;5.05;70.56
13027;BME280;6580;42.680;23.324;2023-02-03T08:38:18;95861.66;;;4.94;71.36
13027;BME280;6580;42.680;23.324;2023-02-03T08:40:47;95859.56;;;4.87;69.75
13027;BME280;6580;42.680;23.324;2023-02-03T08:43:13;95866.53;;;4.88;70.04
13027;BME280;6580;42.680;23.324;2023-02-03T08:45:40;95866.91;;;5.06;68.44
13027;BME280;6580;42.680;23.324;2023-02-03T08:48:07;95865.31;;;5.04;67.87
13027;BME280;6580;42.680;23.324;2023-02-03T08:50:34;95861.13;;;5.01;67.60
13027;BME280;6580;42.680;23.324;2023-02-03T08:53:01;95881.72;;;5.56;66.53
13027;BME280;6580;42.680;23.324;2023-02-03T08:55:30;95874.44;;;5.59;66.02
13027;BME280;6580;42.680;23.324;2023-02-03T08:57:57;95884.16;;;5.59;65.10
13027;BME280;6580;42.680;23.324;2023-02-03T09:00:25;95878.44;;;5.05;66.61
13027;BME280;6580;42.680;23.324;2023-02-03T09:02:52;95889.91;;;5.53;67.24
13027;BME280;6580;42.680;23.324;2023-02-03T09:05:19;95867.00;;;5.64;66.72
13027;BME280;6580;42.680;23.324;2023-02-03T09:07:46;95882.97;;;5.63;66.32
13027;BME280;6580;42.680;23.324;2023-02-03T09:10:16;95874.88;;;5.53;66.57
13027;BME280;6580;42.680;23.324;2023-02-03T09:12:44;95883.75;;;5.52;66.44
13027;BME280;6580;42.680;23.324;2023-02-03T09:15:14;95886.13;;;5.68;66.59
13027;BME280;6580;42.680;23.324;2023-02-03T09:17:41;95856.22;;;5.67;64.92
13027;BME280;6580;42.680;23.324;2023-02-03T09:20:09;95870.38;;;5.66;65.11
13027;BME280;6580;42.680;23.324;2023-02-03T09:22:39;95865.44;;;6.19;65.55
13027;BME280;6580;42.680;23.324;2023-02-03T09:25:06;95860.91;;;7.42;61.53
13027;BME280;6580;42.680;23.324;2023-02-03T09:27:34;95854.28;;;7.36;59.76
13027;BME280;6580;42.680;23.324;2023-02-03T09:30:05;95865.91;;;7.56;56.56
13027;BME280;6580;42.680;23.324;2023-02-03T09:32:33;95870.13;;;8.01;56.87
13027;BME280;6580;42.680;23.324;2023-02-03T09:34:59;95855.75;;;8.34;54.38
13027;BME280;6580;42.680;23.324;2023-02-03T09:37:28;95837.50;;;8.91;51.88
13027;BME280;6580;42.680;23.324;2023-02-03T09:39:58;95847.41;;;9.28;49.63
13027;BME280;6580;42.680;23.324;2023-02-03T09:43:04;95851.41;;;9.43;48.91
13027;BME280;6580;42.680;23.324;2023-02-03T09:45:35;95858.47;;;8.44;50.18
13027;BME280;6580;42.680;23.324;2023-02-03T09:48:05;95852.44;;;8.42;49.78
13027;BME280;6580;42.680;23.324;2023-02-03T09:50:37;95841.13;;;8.90;47.86
13027;BME280;6580;42.680;23.324;2023-02-03T09:53:13;95839.34;;;9.39;47.20
13027;BME280;6580;42.680;23.324;2023-02-03T09:55:45;95827.47;;;9.04;46.52
13027;BME280;6580;42.680;23.324;2023-02-03T09:58:15;95823.78;;;10.03;45.82
13027;BME280;6580;42.680;23.324;2023-02-03T10:00:46;95826.03;;;10.91;43.59
13027;BME280;6580;42.680;23.324;2023-02-03T10:03:24;95839.75;;;10.21;44.54
13027;BME280;6580;42.680;23.324;2023-02-03T10:06:21;95815.06;;;10.48;43.99
13027;BME280;6580;42.680;23.324;2023-02-03T10:09:13;95823.78;;;10.21;42.43
13027;BME280;6580;42.680;23.324;2023-02-03T10:12:07;95815.69;;;11.41;41.02
13027;BME280;6580;42.680;23.324;2023-02-03T10:14:52;95823.38;;;11.98;38.72
13027;BME280;6580;42.680;23.324;2023-02-03T10:17:29;95809.50;;;10.32;41.56
13027;BME280;6580;42.680;23.324;2023-02-03T10:20:03;95826.66;;;11.38;41.00
13027;BME280;6580;42.680;23.324;2023-02-03T10:22:33;95810.38;;;12.03;40.29
13027;BME280;6580;42.680;23.324;2023-02-03T10:25:06;95811.00;;;10.44;43.61
13027;BME280;6580;42.680;23.324;2023-02-03T10:27:37;95813.91;;;11.32;41.66
13027;BME280;6580;42.680;23.324;2023-02-03T10:30:13;95825.13;;;9.59;43.00
13027;BME280;6580;42.680;23.324;2023-02-03T10:32:44;95819.28;;;9.16;42.98
13027;BME280;6580;42.680;23.324;2023-02-03T10:35:11;95807.59;;;8.18;44.41
13027;BME280;6580;42.680;23.324;2023-02-03T10:37:42;95820.25;;;8.15;44.68
13027;BME280;6580;42.680;23.324;2023-02-03T10:40:13;95827.28;;;8.16;44.88
13027;BME280;6580;42.680;23.324;2023-02-03T10:42:46;95826.38;;;8.47;43.81
13027;BME280;6580;42.680;23.324;2023-02-03T10:45:35;95835.34;;;7.83;46.76
13027;BME280;6580;42.680;23.324;2023-02-03T10:48:06;95821.28;;;8.03;47.11
13027;BME280;6580;42.680;23.324;2023-02-03T10:50:41;95825.91;;;7.27;47.75
13027;BME280;6580;42.680;23.324;2023-02-03T10:53:22;95831.34;;;7.15;49.43
13027;BME280;6580;42.680;23.324;2023-02-03T10:55:51;95838.66;;;7.22;49.29
13027;BME280;6580;42.680;23.324;2023-02-03T10:58:27;95843.88;;;7.13;48.32
13027;BME280;6580;42.680;23.324;2023-02-03T11:00:56;95812.44;;;7.19;46.41
13027;BME280;6580;42.680;23.324;2023-02-03T11:03:27;95818.00;;;6.95;45.36
13027;BME280;6580;42.680;23.324;2023-02-03T11:06:09;95832.47;;;6.91;44.05
13027;BME280;6580;42.680;23.324;2023-02-03T11:08:39;95820.00;;;7.24;45.93
13027;BME280;6580;42.680;23.324;2023-02-03T11:11:13;95818.69;;;7.92;44.10
13027;BME280;6580;42.680;23.324;2023-02-03T11:13:41;95798.41;;;9.70;40.34
13027;BME280;6580;42.680;23.324;2023-02-03T11:16:13;95799.22;;;10.92;38.58
13027;BME280;6580;42.680;23.324;2023-02-03T11:18:46;95796.69;;;11.00;37.53
13027;BME280;6580;42.680;23.324;2023-02-03T11:21:18;95802.91;;;9.89;39.26
13027;BME280;6580;42.680;23.324;2023-02-03T11:23:55;95796.94;;;11.60;36.47
13027;BME280;6580;42.680;23.324;2023-02-03T11:26:26;95786.88;;;11.54;36.21
13027;BME280;6580;42.680;23.324;2023-02-03T11:31:38;95769.00;;;12.67;33.82
13027;BME280;6580;42.680;23.324;2023-02-03T11:34:16;95763.91;;;12.99;33.52
13027;BME280;6580;42.680;23.324;2023-02-03T11:36:44;95755.00;;;13.89;32.72
13027;BME280;6580;42.680;23.324;2023-02-03T11:39:24;95754.59;;;13.11;33.00
13027;BME280;6580;42.680;23.324;2023-02-03T11:42:00;95753.56;;;14.26;32.13
13027;BME280;6580;42.680;23.324;2023-02-03T11:44:31;95754.97;;;13.16;33.18
13027;BME280;6580;42.680;23.324;2023-02-03T11:47:00;95759.47;;;11.79;34.46
13027;BME280;6580;42.680;23.324;2023-02-03T11:50:02;95765.22;;;9.74;36.86
13027;BME280;6580;42.680;23.324;2023-02-03T11:52:49;95781.22;;;9.07;38.70
13027;BME280;6580;42.680;23.324;2023-02-03T11:55:28;95768.50;;;8.71;37.87
13027;BME280;6580;42.680;23.324;2023-02-03T11:58:12;95766.00;;;9.08;37.48
13027;BME280;6580;42.680;23.324;2023-02-03T12:00:48;95766.19;;;9.64;35.83
13027;BME280;6580;42.680;23.324;2023-02-03T12:12:33;95760.56;;;10.42;34.86
13027;BME280;6580;42.680;23.324;2023-02-03T12:15:20;95782.00;;;8.38;37.18
13027;BME280;6580;42.680;23.324;2023-02-03T12:17:59;95774.03;;;7.14;39.56
13027;BME280;6580;42.680;23.324;2023-02-03T12:20:38;95774.94;;;7.35;39.27
13027;BME280;6580;42.680;23.324;2023-02-03T12:23:18;95765.31;;;6.70;39.23
13027;BME280;6580;42.680;23.324;2023-02-03T12:25:59;95782.75;;;7.36;38.04
13027;BME280;6580;42.680;23.324;2023-02-03T12:28:44;95756.97;;;9.87;34.85
13027;BME280;6580;42.680;23.324;2023-02-03T12:31:19;95749.50;;;9.33;35.27
13027;BME280;6580;42.680;23.324;2023-02-03T12:33:50;95763.25;;;9.57;35.17
13027;BME280;6580;42.680;23.324;2023-02-03T12:36:21;95765.91;;;7.89;37.11
13027;BME280;6580;42.680;23.324;2023-02-03T12:38:57;95766.06;;;7.56;39.07
13027;BME280;6580;42.680;23.324;2023-02-03T12:41:30;95770.97;;;7.29;39.48
13027;BME280;6580;42.680;23.324;2023-02-03T12:44:04;95769.25;;;6.97;39.48
13027;BME280;6580;42.680;23.324;2023-02-03T12:46:42;95759.91;;;6.82;40.13
13027;BME280;6580;42.680;23.324;2023-02-03T12:49:15;95765.78;;;6.75;39.99
13027;BME280;6580;42.680;23.324;2023-02-03T12:51:51;95759.28;;;6.90;40.87
13027;BME280;6580;42.680;23.324;2023-02-03T12:54:31;95760.00;;;8.17;39.88
13027;BME280;6580;42.680;23.324;2023-02-03T12:57:12;95744.97;;;8.96;38.59
13027;BME280;6580;42.680;23.324;2023-02-03T12:59:52;95722.59;;;10.40;35.48
13027;BME280;6580;42.680;23.324;2023-02-03T13:02:26;95711.06;;;9.75;36.55
13027;BME280;6580;42.680;23.324;2023-02-03T13:04:58;95717.19;;;9.76;36.88
13027;BME280;6580;42.680;23.324;2023-02-03T13:07:35;95722.63;;;9.08;37.59
13027;BME280;6580;42.680;23.324;2023-02-03T13:10:15;95720.72;;;9.67;37.42
13027;BME280;6580;42.680;23.324;2023-02-03T13:12:52;95726.91;;;8.90;39.15
13027;BME280;6580;42.680;23.324;2023-02-03T13:15:26;95731.50;;;8.19;41.26
13027;BME280;6580;42.680;23.324;2023-02-03T13:17:58;95711.56;;;10.16;38.63
13027;BME280;6580;42.680;23.324;2023-02-03T13:20:29;95712.44;;;10.17;37.83
13027;BME280;6580;42.680;23.324;2023-02-03T13:23:03;95718.88;;;9.48;38.69
13027;BME280;6580;42.680;23.324;2023-02-03T13:25:39;95722.22;;;9.41;38.39
13027;BME280;6580;42.680;23.324;2023-02-03T13:28:17;95726.22;;;8.28;40.81
13027;BME280;6580;42.680;23.324;2023-02-03T13:31:04;95724.91;;;7.93;41.32
13027;BME280;6580;42.680;23.324;2023-02-03T13:33:49;95723.88;;;7.02;43.94
13027;BME280;6580;42.680;23.324;2023-02-03T13:39:39;95706.84;;;10.56;37.89
13027;BME280;6580;42.680;23.324;2023-02-03T13:42:28;95710.22;;;10.49;37.98
13027;BME280;6580;42.680;23.324;2023-02-03T13:44:58;95716.03;;;8.54;40.67
13027;BME280;6580;42.680;23.324;2023-02-03T13:47:31;95734.88;;;7.80;41.61